Latest Weather Observations for Red Rocks Point

IDW60801

Issued at 8:53 pm WST Wednesday 8 July 2020 (issued every 10 minutes, with the page automatically refreshed every 10 minutes)

About weather observations | Map of weather stations | Latest weather observations for WA | Other Formats
Station Details ID: 011053 Name: RED ROCKS POINT Lat: -32.20 Lon: 127.53 Height: 3.1 m
Data from the previous 72 hours. | See also: Recent months at Red Rocks Point
Date/Time
WST
Temp
°C
App
Temp
°C
Dew
Point
°C
Rel
Hum
%
Delta-T
°C
Wind Press
QNH
hPa
Press
MSL
hPa
Rain since
9am
mm
Dir  Spd
km/h
Gust
km/h
Spd
kts
Gust
kts
08/08:30pm 8.3 3.4 2.1 65 2.6 NW 17 17 9 9 1020.9 1020.9 0.0
08/08:00pm 8.3 4.2 2.1 65 2.6 NNW 13 17 7 9 1020.7 1020.7 0.0
08/07:30pm 8.6 5.8 2.2 64 2.7 WNW 6 7 3 4 1020.5 1020.5 0.0
08/07:00pm 8.0 4.9 1.2 62 2.7 SW 7 9 4 5 1020.3 1020.3 0.0
08/06:30pm 8.6 5.5 1.3 60 3.0 SW 7 7 4 4 1020.2 1020.2 0.0
08/06:00pm 9.4 6.5 1.6 58 3.2 SW 6 7 3 4 1020.0 1020.0 0.0
08/05:30pm 10.7 7.3 1.8 54 3.8 SW 9 9 5 5 1019.8 1019.8 0.0
08/05:00pm 12.3 9.4 2.7 52 4.2 WSW 7 9 4 5 1019.6 1019.6 0.0
08/04:30pm 14.3 11.2 3.7 49 4.8 WSW 9 9 5 5 1019.4 1019.4 0.0
08/04:00pm 16.2 13.3 4.6 46 5.4 WSW 9 13 5 7 1019.4 1019.4 0.0
08/03:30pm 16.7 13.0 4.4 44 5.8 SW 13 19 7 10 1019.3 1019.3 0.0
08/03:00pm 17.2 12.7 4.2 42 6.1 SW 17 24 9 13 1019.2 1019.2 0.0
08/02:30pm 17.6 12.8 4.9 43 6.1 SW 19 28 10 15 1019.1 1019.1 0.0
08/02:00pm 17.9 12.1 4.5 41 6.4 SW 24 37 13 20 1019.1 1019.1 0.0
08/01:30pm 18.5 13.4 3.9 38 6.9 SW 20 30 11 16 1019.1 1019.1 0.0
08/01:00pm 18.7 13.5 3.7 37 7.0 SW 20 32 11 17 1019.1 1019.1 0.0
08/12:30pm 18.3 12.7 3.4 37 6.9 SW 22 30 12 16 1019.3 1019.3 0.0
08/12:00pm 18.3 12.7 3.4 37 6.9 SW 22 32 12 17 1019.6 1019.6 0.0
08/11:30am 18.6 13.4 3.6 37 7.0 SW 20 30 11 16 1020.1 1020.1 0.0
08/11:00am 17.6 12.6 4.6 42 6.2 WSW 20 32 11 17 1020.7 1020.7 0.0
08/10:30am 17.9 13.6 5.2 43 6.1 SW 17 24 9 13 1021.1 1021.1 0.0
08/10:00am 18.2 14.0 4.0 39 6.7 SW 15 20 8 11 1021.0 1021.0 0.0
08/09:30am 17.8 14.3 3.3 38 6.7 W 11 17 6 9 1021.2 1021.2 0.0
08/09:00am 15.3 11.5 4.1 47 5.2 WNW 13 20 7 11 1021.3 1021.3 0.0
08/08:30am 12.4 7.9 4.1 57 3.7 NW 17 20 9 11 1021.1 1021.1 0.0
08/08:00am 9.9 5.5 4.5 69 2.4 NW 17 20 9 11 1020.9 1020.9 0.0
08/07:30am 8.2 3.0 3.3 71 2.1 NW 20 24 11 13 1021.0 1021.0 0.0
08/07:00am 7.5 2.3 2.6 71 2.0 NW 19 20 10 11 1020.6 1020.6 0.0
08/06:30am 7.2 1.8 2.3 71 2.0 NW 20 22 11 12 1020.3 1020.3 0.0
08/06:00am 7.5 2.1 2.6 71 2.0 NW 20 22 11 12 1020.1 1020.1 0.0
08/05:00am 8.1 3.4 3.2 71 2.1 W 17 - 9 - - 1019.8 -
08/02:30am 7.5 2.0 1.6 66 2.4 NW 20 24 11 13 1020.7 1020.7 0.0
08/02:00am 7.0 1.6 1.3 67 2.3 NW 19 22 10 12 1020.5 1020.5 0.0
08/01:30am 6.9 1.9 1.2 67 2.3 NNW 17 20 9 11 1020.5 1020.5 0.0
08/01:00am 8.3 3.5 2.5 67 2.4 NW 17 17 9 9 1020.5 1020.5 0.0
08/12:30am 9.4 5.9 3.6 67 2.5 WNW 11 15 6 8 1020.6 1020.6 0.0
08/12:00am 9.1 4.8 3.1 66 2.6 NW 15 17 8 9 1020.7 1020.7 0.0
 
Date/Time
WST
Temp
°C
App
Temp
°C
Dew
Point
°C
Rel
Hum
%
Delta-T
°C
Wind Press
QNH
hPa
Press
MSL
hPa
Rain since
9am
mm
Dir  Spd
km/h
Gust
km/h
Spd
kts
Gust
kts
07/11:30pm 10.2 6.4 3.9 65 2.8 NNW 13 17 7 9 1021.2 1021.2 0.0
07/11:00pm 13.1 9.9 6.7 65 3.1 WSW 13 15 7 8 1021.0 1021.0 0.0
07/10:30pm 12.4 9.0 5.8 64 3.1 SW 13 15 7 8 1021.1 1021.1 0.0
07/10:00pm 11.8 8.8 4.3 60 3.4 W 9 13 5 7 1021.3 1021.3 0.0
07/09:30pm 13.3 10.2 5.5 59 3.7 WSW 11 13 6 7 1021.3 1021.3 0.0
07/09:00pm 13.9 10.7 5.3 56 4.0 WSW 11 13 6 7 1021.3 1021.3 0.0
07/08:30pm 14.7 11.2 5.5 54 4.4 WSW 13 17 7 9 1021.3 1021.3 0.0
07/08:00pm 14.3 11.0 4.3 51 4.6 SW 11 13 6 7 1020.9 1020.9 0.0
07/07:30pm 15.0 11.3 4.4 49 4.9 SW 13 15 7 8 1020.8 1020.8 0.0
07/07:00pm 15.5 11.1 4.6 48 5.1 SW 17 19 9 10 1020.8 1020.8 0.0
07/06:30pm 15.3 10.8 4.4 48 5.1 SW 17 22 9 12 1020.5 1020.5 0.0
07/06:00pm 14.8 10.4 4.8 51 4.7 SW 17 20 9 11 1020.3 1020.3 0.0
07/05:30pm 15.0 11.5 5.5 53 4.5 WSW 13 19 7 10 1020.2 1020.2 0.0
07/05:00pm 15.7 12.2 5.6 51 4.8 SW 13 17 7 9 1020.0 1020.0 0.0
07/04:30pm 16.1 12.2 5.4 49 5.1 WSW 15 20 8 11 1019.8 1019.8 0.0
07/04:00pm 18.0 13.6 4.9 42 6.3 WSW 17 24 9 13 1019.7 1019.7 0.0
07/03:52pm 18.7 14.0 3.3 36 7.2 WSW 17 24 9 13 1019.7 1019.7 0.0
07/03:30pm 23.8 19.7 -6.2 13 12.1 N 7 11 4 6 1019.5 1019.5 0.0
07/03:00pm 23.9 19.0 -7.2 12 12.3 N 11 15 6 8 1019.4 1019.4 0.0
07/02:30pm 24.1 18.5 -6.0 13 12.3 N 15 22 8 12 1019.3 1019.3 0.0
07/02:00pm 23.5 17.0 -7.5 12 12.2 NNE 19 26 10 14 1019.3 1019.3 0.0
07/01:30pm 24.3 18.0 -5.8 13 12.3 N 19 24 10 13 1019.5 1019.5 0.0
07/01:00pm 22.9 16.1 -5.1 15 11.4 NNE 22 30 12 16 1019.8 1019.8 0.0
07/12:30pm 21.5 15.1 -5.3 16 10.8 NE 20 28 11 15 1020.3 1020.3 0.0
07/12:00pm 19.9 14.0 -5.8 17 10.0 NNE 17 22 9 12 1021.4 1021.4 0.0
07/11:30am 20.0 14.2 -5.0 18 10.0 N 17 26 9 14 1022.2 1022.2 0.0
07/11:00am 21.2 14.8 -4.8 17 10.5 N 20 30 11 16 1022.6 1022.6 0.0
07/10:30am 20.1 13.7 -4.9 18 10.0 N 20 28 11 15 1023.1 1023.1 0.0
07/10:00am 18.4 12.2 -4.9 20 9.1 N 19 26 10 14 1023.6 1023.6 0.0
07/09:30am 16.5 10.3 -5.3 22 8.3 N 19 28 10 15 1024.0 1024.0 0.0
07/09:00am 14.2 9.2 -4.5 27 7.0 NNE 13 20 7 11 1024.3 1024.3 0.0
07/08:30am 12.8 6.6 -5.2 28 6.6 N 19 28 10 15 1024.2 1024.2 0.0
07/08:00am 11.7 5.9 -4.8 31 6.0 NNE 17 24 9 13 1024.1 1024.1 0.0
07/07:30am 10.4 5.3 -4.8 34 5.5 NNE 13 17 7 9 1024.1 1024.1 0.0
07/07:00am 8.9 3.4 -5.0 37 4.9 NNE 15 20 8 11 1023.9 1023.9 0.0
07/06:30am 7.2 1.7 -5.1 41 4.2 NNE 15 19 8 10 1023.9 1023.9 0.0
07/06:00am 6.5 1.4 -5.5 42 4.0 NNE 13 15 7 8 1024.0 1024.0 0.0
07/05:30am 6.2 1.0 -5.7 42 4.0 N 13 13 7 7 1023.9 1023.9 0.0
07/05:00am 6.5 1.7 -5.8 41 4.1 NNE 11 11 6 6 1023.7 1023.7 0.0
07/04:30am 7.6 3.2 -5.8 38 4.5 NNE 9 13 5 7 1023.5 1023.5 0.0
07/04:00am 8.5 3.0 -5.7 36 4.9 NNE 15 22 8 12 1023.4 1023.4 0.0
07/03:30am 9.0 3.1 -5.6 35 5.1 NNE 17 22 9 12 1023.4 1023.4 0.0
07/03:00am 9.2 3.7 -5.4 35 5.1 NNE 15 20 8 11 1023.6 1023.6 0.0
07/02:30am 10.3 4.1 -5.2 33 5.5 NNE 19 24 10 13 1024.0 1024.0 0.0
07/02:00am 10.3 4.4 -5.2 33 5.5 NNE 17 22 9 12 1024.0 1024.0 0.0
07/01:30am 10.6 4.7 -5.4 32 5.7 NNE 17 24 9 13 1024.1 1024.1 0.0
07/01:00am 11.7 5.4 -5.7 29 6.2 NNE 19 30 10 16 1024.1 1024.1 0.0
07/12:30am 11.8 5.3 -6.1 28 6.4 NNE 20 28 11 15 1023.9 1023.9 0.0
07/12:00am 12.2 5.7 -6.2 27 6.5 NNE 20 26 11 14 1024.2 1024.2 0.0
 
Date/Time
WST
Temp
°C
App
Temp
°C
Dew
Point
°C
Rel
Hum
%
Delta-T
°C
Wind Press
QNH
hPa
Press
MSL
hPa
Rain since
9am
mm
Dir  Spd
km/h
Gust
km/h
Spd
kts
Gust
kts
06/11:30pm 12.2 5.7 -6.2 27 6.6 NNE 20 26 11 14 1024.4 1024.4 0.0
06/11:00pm 12.9 6.5 -6.6 25 6.9 NNE 19 24 10 13 1025.0 1025.0 0.0
06/10:30pm 14.0 7.5 -6.2 24 7.4 NNE 20 30 11 16 1025.0 1025.0 0.0
06/10:00pm 14.6 6.9 -6.3 23 7.6 NNE 26 35 14 19 1024.6 1024.6 0.0
06/09:30pm 14.3 6.6 -6.5 23 7.6 NE 26 35 14 19 1024.6 1024.6 0.0
06/09:00pm 14.0 7.0 -6.8 23 7.4 NNE 22 32 12 17 1025.1 1025.1 0.0
06/08:30pm 13.6 7.0 -7.1 23 7.4 NNE 20 30 11 16 1025.3 1025.3 0.0
06/08:00pm 13.7 7.3 -7.0 23 7.3 NNE 19 26 10 14 1025.6 1025.6 0.0
06/07:30pm 14.5 8.1 -6.9 22 7.7 NE 19 26 10 14 1025.5 1025.5 0.0
06/07:00pm 14.7 8.2 -7.4 21 7.9 NE 19 26 10 14 1025.5 1025.5 0.0
06/06:30pm 15.7 9.3 -7.2 20 8.3 NNE 19 24 10 13 1025.4 1025.4 0.0
06/06:00pm 16.4 10.3 -7.3 19 8.6 NE 17 24 9 13 1025.1 1025.1 0.0
06/05:30pm 16.0 10.4 -6.9 20 8.4 NE 15 17 8 9 1024.7 1024.7 0.0
06/05:00pm 17.5 12.2 -7.0 18 9.1 NE 13 17 7 9 1024.5 1024.5 0.0
06/04:30pm 19.4 13.4 -7.0 16 10.1 NE 17 24 9 13 1024.3 1024.3 0.0
06/04:00pm 21.2 14.6 -7.3 14 10.9 NE 20 28 11 15 1024.1 1024.1 0.0
06/03:30pm 22.2 15.5 -7.5 13 11.5 NNE 20 30 11 16 1024.1 1024.1 0.0
06/03:00pm 22.9 16.2 -8.0 12 11.9 NNE 20 32 11 17 1024.1 1024.1 0.0
06/02:30pm 23.0 15.6 -7.9 12 12.0 NNE 24 32 13 17 1024.1 1024.1 0.0
06/02:00pm 23.2 16.2 -6.7 13 11.9 NNE 22 33 12 18 1024.3 1024.3 0.0
06/01:30pm 22.9 15.6 -6.0 14 11.6 NNE 24 35 13 19 1024.7 1024.7 0.0
06/01:00pm 22.6 15.4 -5.3 15 11.3 NNE 24 37 13 20 1025.0 1025.0 0.0
06/12:30pm 22.2 14.6 -5.6 15 11.2 N 26 35 14 19 1025.4 1025.4 0.0
06/12:00pm 22.0 14.8 -4.9 16 10.9 NNE 24 35 13 19 1025.8 1025.8 0.0
06/11:30am 21.4 13.9 -4.6 17 10.6 NNE 26 39 14 21 1026.4 1026.4 0.0
06/11:00am 21.1 13.7 -3.4 19 10.1 NNE 26 35 14 19 1026.8 1026.8 0.0
06/10:30am 20.2 12.5 -2.8 21 9.6 N 28 48 15 26 1027.2 1027.2 0.0
06/10:01am 18.9 11.2 -2.7 23 8.9 NNE 28 46 15 25 1027.5 1027.5 0.0
06/10:00am 19.0 11.4 -2.0 24 8.8 N 28 41 15 22 1027.5 1027.5 0.0
06/09:30am 17.6 10.5 -1.1 28 7.9 N 26 39 14 21 1027.8 1027.8 0.0
06/09:00am 15.8 9.1 -0.8 32 6.9 N 24 37 13 20 1028.2 1028.2 0.0
06/08:30am 13.6 7.3 -0.8 37 5.9 N 22 30 12 16 1028.1 1028.1 0.0
06/08:00am 10.9 5.1 -1.2 43 4.7 N 19 30 10 16 1028.0 1028.0 0.0
06/07:30am 8.8 3.0 -1.3 49 3.9 N 19 24 10 13 1027.9 1027.9 0.0
06/07:00am 7.6 1.8 -1.6 52 3.4 N 19 24 10 13 1027.6 1027.6 0.0
06/06:30am 7.1 1.7 -1.6 54 3.3 N 17 20 9 11 1027.3 1027.3 0.0
06/06:00am 7.6 2.2 -1.1 54 3.3 NNE 17 22 9 12 1026.9 1026.9 0.0
06/05:30am 7.4 2.6 -0.1 59 2.9 NNE 15 20 8 11 1026.7 1026.7 0.0
06/05:00am 6.5 2.0 0.0 63 2.5 NNE 13 17 7 9 1026.6 1026.6 0.0
06/04:30am 7.0 2.6 0.2 62 2.7 NNE 13 17 7 9 1026.5 1026.5 0.0
06/04:00am 7.2 2.5 0.9 64 2.5 NE 15 19 8 10 1026.3 1026.3 0.0
06/03:30am 7.2 2.8 0.6 63 2.6 NE 13 17 7 9 1026.2 1026.2 0.0
06/03:00am 7.7 3.4 0.9 62 2.7 NE 13 17 7 9 1026.2 1026.2 0.0
06/02:30am 8.1 3.5 1.3 62 2.8 NE 15 20 8 11 1026.3 1026.3 0.0
06/02:00am 8.4 3.8 1.3 61 2.9 NE 15 17 8 9 1026.4 1026.4 0.0
06/01:30am 9.1 4.2 2.0 61 3.0 NE 17 22 9 12 1026.5 1026.5 0.0
06/01:00am 9.4 4.5 2.3 61 3.0 NE 17 20 9 11 1026.6 1026.6 0.0
06/12:30am 9.7 4.9 2.8 62 2.9 NE 17 20 9 11 1026.5 1026.5 0.0
06/12:00am 10.3 6.0 3.1 61 3.1 NE 15 19 8 10 1026.7 1026.7 0.0
 
Date/Time
WST
Temp
°C
App
Temp
°C
Dew
Point
°C
Rel
Hum
%
Delta-T
°C
Wind Press
QNH
hPa
Press
MSL
hPa
Rain since
9am
mm
Dir  Spd
km/h
Gust
km/h
Spd
kts
Gust
kts
05/11:30pm 10.7 6.2 4.0 63 3.0 NE 17 19 9 10 1026.9 1026.9 0.0
05/11:00pm 11.2 6.7 4.4 63 3.0 NE 17 19 9 10 1027.0 1027.0 0.0
05/10:30pm 11.6 7.2 4.8 63 3.1 NE 17 20 9 11 1027.3 1027.3 0.0
05/10:00pm 11.9 7.2 5.1 63 3.1 NE 19 22 10 12 1027.3 1027.3 0.0
05/09:30pm 12.3 7.4 5.2 62 3.3 NE 20 24 11 13 1027.1 1027.1 0.0
05/09:00pm 12.5 7.9 5.4 62 3.3 NE 19 24 10 13 1027.1 1027.1 0.0

Other formats

Comma delimited format used in spreadsheet applications
http://www.bom.gov.au/fwo/IDW60801/IDW60801.94644.axf

JavaScript Object Notation format (JSON) in row-major order
http://www.bom.gov.au/fwo/IDW60801/IDW60801.94644.json

Data quality

Most of these data are generated automatically and are frequently updated. Quality checks on data are not normally performed. It is possible for incorrect values to appear. Refer to information at About Latest Weather Observations and please check the disclaimer before using these data.